Time;durP1;ratioP1;P1;durP2;ratioP2;P2;SDS_P1;SDS_P2;PMS_P1;PMS_P2;Temp;Humidity;BMP_temperature;BMP_pressure;BME280_temperature;BME280_humidity;BME280_pressure;Samples;Min_cycle;Max_cycle;Signal;HPM_P1;HPM_P2
2022/08/10 00:02:37;;;;;;;;;5.50;5.50;;;;;19.57;57.19;100163.09;6321557;20;2752448;-63
2022/08/10 00:05:06;;;;;;;;;5.00;5.00;;;;;19.68;56.89;100157.53;6290607;20;2745041;-63
2022/08/10 00:07:34;;;;;;;;;4.00;4.00;;;;;19.60;56.67;100157.34;6292865;20;2737737;-62
2022/08/10 00:10:02;;;;;;;;;4.00;3.00;;;;;19.59;57.00;100155.59;6297740;20;2736700;-63
2022/08/10 00:12:30;;;;;;;;;4.50;4.50;;;;;19.47;57.59;100147.56;6290354;20;2747171;-62
2022/08/10 00:15:22;;;;;;;;;4.50;4.50;;;;;19.76;56.65;100146.78;6294269;20;2746118;-63
2022/08/10 00:18:10;;;;;;;;;7.00;7.00;;;;;19.87;56.31;100143.91;6293549;20;2733620;-63
2022/08/10 00:20:59;;;;;;;;;5.00;5.00;;;;;19.89;56.76;100152.81;6315085;20;2737837;-63
2022/08/10 00:23:29;;;;;;;;;4.00;4.00;;;;;19.74;56.71;100148.78;6344296;20;2733609;-63
2022/08/10 00:25:56;;;;;;;;;5.50;5.00;;;;;19.76;56.82;100146.78;6322702;20;2744025;-63
2022/08/10 00:28:24;;;;;;;;;6.00;5.00;;;;;19.58;57.27;100148.44;6295699;20;2743515;-63
2022/08/10 00:30:52;;;;;;;;;4.00;4.00;;;;;19.48;57.60;100149.31;6293649;20;2738834;-63
2022/08/10 00:33:20;;;;;;;;;4.00;4.00;;;;;19.52;57.78;100150.72;6293862;20;2747141;-63
2022/08/10 00:35:50;;;;;;;;;4.00;4.00;;;;;19.65;57.19;100150.47;6296194;20;2738944;-63
2022/08/10 00:38:19;;;;;;;;;5.00;5.00;;;;;19.35;58.34;100151.41;6341094;20;2732722;-63
2022/08/10 00:40:48;;;;;;;;;5.00;5.00;;;;;19.19;58.47;100145.63;6321336;20;2748236;-62
2022/08/10 00:43:16;;;;;;;;;5.00;4.00;;;;;19.17;59.06;100150.34;6318951;20;2745086;-63
2022/08/10 00:45:52;;;;;;;;;5.00;5.00;;;;;18.98;59.78;100143.84;6293528;20;2748226;-63
2022/08/10 00:48:29;;;;;;;;;2.00;2.00;;;;;18.93;60.11;100146.13;6346170;20;2742058;-63
2022/08/10 00:50:59;;;;;;;;;5.00;5.00;;;;;18.90;60.21;100146.38;6321018;20;2744572;-63
2022/08/10 00:53:28;;;;;;;;;4.50;4.50;;;;;18.78;60.41;100144.78;6295605;20;2738868;-63
2022/08/10 00:55:56;;;;;;;;;9.00;6.00;;;;;18.74;60.35;100143.28;6287797;20;2732520;-63
2022/08/10 00:58:46;;;;;;;;;5.00;5.00;;;;;18.70;60.39;100141.84;6287493;20;2748161;-63
2022/08/10 01:01:15;;;;;;;;;7.00;5.00;;;;;18.68;61.21;100143.81;6315732;20;2739934;-63
2022/08/10 01:04:04;;;;;;;;;2.00;2.00;;;;;18.56;61.40;100137.59;6320325;20;2746256;-63
2022/08/10 01:07:35;;;;;;;;;5.00;5.00;;;;;18.34;61.67;100139.47;6294550;20;2752360;-63
2022/08/10 01:10:41;;;;;;;;;4.50;4.50;;;;;18.46;61.75;100140.28;6292228;20;2745037;-63
2022/08/10 01:13:48;;;;;;;;;5.00;5.00;;;;;18.35;61.97;100135.78;6287145;20;2743440;-63
2022/08/10 01:16:39;;;;;;;;;5.00;5.00;;;;;18.41;61.95;100142.53;6286869;20;2741924;-63
2022/08/10 01:19:47;;;;;;;;;6.00;6.00;;;;;18.41;61.59;100148.81;6309401;20;2739875;-63
2022/08/10 01:23:23;;;;;;;;;2.00;2.00;;;;;18.41;62.08;100143.38;6318973;20;2733606;-64
2022/08/10 01:26:07;;;;;;;;;5.40;5.00;;;;;19.04;60.03;100140.59;6309867;20;2740871;-63
2022/08/10 01:29:59;;;;;;;;;4.00;4.00;;;;;18.70;60.63;100137.25;6318626;20;2750323;-63
2022/08/10 01:33:17;;;;;;;;;7.00;5.00;;;;;18.86;60.40;100145.81;6290762;20;2738918;-63
2022/08/10 01:36:17;;;;;;;;;5.00;5.00;;;;;18.67;61.23;100142.09;6289590;20;2729506;-63
2022/08/10 01:38:49;;;;;;;;;5.00;5.00;;;;;18.56;61.65;100141.19;6309743;20;2739833;-63
2022/08/10 01:41:43;;;;;;;;;5.60;5.60;;;;;18.93;60.15;100148.84;6342776;20;2733666;-64
2022/08/10 01:44:27;;;;;;;;;6.00;6.00;;;;;18.98;59.82;100141.13;6318807;20;2738878;-63
2022/08/10 01:50:09;;;;;;;;;5.00;5.00;;;;;18.47;61.91;100138.41;6289785;20;2748184;-63
2022/08/10 01:52:41;;;;;;;;;7.50;7.00;;;;;18.20;62.37;100146.09;6290051;20;2736740;-64
2022/08/10 01:55:13;;;;;;;;;5.40;5.40;;;;;18.65;61.85;100136.78;6312290;20;2741955;-63
2022/08/10 01:57:46;;;;;;;;;6.80;6.20;;;;;18.29;62.74;100140.88;6339657;20;2735657;-63
2022/08/10 02:00:17;;;;;;;;;4.80;4.80;;;;;17.95;63.93;100138.31;6340749;20;2739831;-63
2022/08/10 02:02:47;;;;;;;;;5.40;5.00;;;;;17.75;64.65;100135.41;6341830;20;2737859;-63
2022/08/10 02:05:17;;;;;;;;;7.00;5.60;;;;;17.77;64.89;100136.16;6339977;20;2741033;-63
2022/08/10 02:07:47;;;;;;;;;6.00;6.00;;;;;17.92;64.78;100135.88;6319039;20;2739939;-60
2022/08/10 02:10:18;;;;;;;;;9.00;5.00;;;;;17.73;65.00;100131.97;6288319;20;2743110;-60
2022/08/10 02:12:46;;;;;;;;;5.00;5.00;;;;;17.68;65.81;100134.22;6285369;20;2751290;-60
2022/08/10 02:15:18;;;;;;;;;5.00;5.00;;;;;18.33;63.42;100131.47;6287590;20;2745034;-60
2022/08/10 02:17:56;;;;;;;;;7.80;5.20;;;;;18.58;61.97;100133.75;6306157;20;2738824;-60
2022/08/10 02:20:40;;;;;;;;;5.00;5.00;;;;;17.98;64.06;100132.63;6318542;20;2736836;-60
2022/08/10 02:23:39;;;;;;;;;7.00;5.20;;;;;17.31;66.93;100131.00;6311638;20;2746296;-60
2022/08/10 02:26:09;;;;;;;;;5.50;5.50;;;;;17.38;67.46;100125.91;6317649;20;2740261;-60
2022/08/10 02:28:38;;;;;;;;;7.50;6.00;;;;;17.44;66.56;100126.25;6288380;20;2742963;-61
2022/08/10 02:31:17;;;;;;;;;7.00;6.00;;;;;17.54;66.74;100129.09;6287476;20;2748214;-61
2022/08/10 02:33:54;;;;;;;;;6.00;5.00;;;;;17.24;67.74;100129.75;6285785;20;2736749;-59
2022/08/10 02:36:29;;;;;;;;;7.00;7.00;;;;;17.61;66.87;100133.00;6286572;20;2735678;-60
2022/08/10 02:39:04;;;;;;;;;7.40;6.40;;;;;17.77;65.59;100133.44;6306193;20;2733740;-60
2022/08/10 02:41:54;;;;;;;;;8.20;4.60;;;;;17.86;65.41;100136.41;6336884;20;2746078;-60
2022/08/10 02:45:07;;;;;;;;;6.20;6.00;;;;;18.19;64.42;100132.63;6339417;20;2735691;-60
2022/08/10 02:48:11;;;;;;;;;7.00;5.40;;;;;18.00;65.15;100138.78;6336868;20;2738810;-60
2022/08/10 02:50:50;;;;;;;;;6.00;6.00;;;;;18.17;64.52;100134.66;6337685;20;2742992;-60
2022/08/10 02:53:39;;;;;;;;;5.00;5.00;;;;;18.08;64.83;100141.72;6316920;20;2739020;-59
2022/08/10 02:56:57;;;;;;;;;6.00;6.00;;;;;18.03;65.24;100143.97;6286139;20;2736769;-60
2022/08/10 02:59:43;;;;;;;;;6.80;6.00;;;;;17.94;65.35;100147.47;6308242;20;2740882;-60
2022/08/10 03:02:42;;;;;;;;;6.29;6.29;;;;;17.82;66.12;100146.66;6358233;20;3456474;-60
2022/08/10 03:05:16;;;;;;;;;7.00;7.00;;;;;17.44;67.61;100149.84;6338839;20;2739843;-59
2022/08/10 03:08:21;;;;;;;;;8.43;7.43;;;;;17.71;66.93;100150.25;6352878;20;3462816;-60
2022/08/10 03:10:52;;;;;;;;;7.60;7.60;;;;;17.91;66.12;100150.47;6337796;20;2739836;-59
2022/08/10 03:13:23;;;;;;;;;8.00;6.00;;;;;17.83;66.35;100144.81;6316423;20;2743251;-60
2022/08/10 03:15:55;;;;;;;;;9.20;7.20;;;;;17.66;67.37;100152.47;6311322;20;2750305;-60
2022/08/10 03:18:24;;;;;;;;;8.00;7.00;;;;;17.74;67.01;100143.69;6311438;20;2740048;-59
2022/08/10 03:20:55;;;;;;;;;7.00;7.00;;;;;17.76;66.74;100153.44;6286631;20;2732545;-63
2022/08/10 03:23:24;;;;;;;;;9.00;8.00;;;;;17.48;67.89;100152.19;6281304;20;2752502;-63
2022/08/10 03:25:57;;;;;;;;;7.20;7.00;;;;;17.60;67.42;100150.28;6309952;20;2737766;-63
2022/08/10 03:28:32;;;;;;;;;6.43;6.43;;;;;17.56;67.39;100154.22;6361454;20;3453448;-63
2022/08/10 03:31:01;;;;;;;;;6.00;6.00;;;;;17.57;67.68;100152.41;6321711;20;2733650;-63
2022/08/10 03:33:36;;;;;;;;;7.60;7.00;;;;;17.51;67.69;100160.06;6323570;20;2736793;-63
2022/08/10 03:36:08;;;;;;;;;6.86;6.86;;;;;17.52;68.09;100166.34;6363361;20;3453542;-62
2022/08/10 03:38:58;;;;;;;;;6.20;6.20;;;;;17.57;68.46;100174.13;6342599;20;2737810;-63
2022/08/10 03:41:47;;;;;;;;;7.71;7.71;;;;;17.52;68.32;100172.63;6362019;20;3451282;-63
2022/08/10 03:44:31;;;;;;;;;9.80;7.00;;;;;17.54;68.45;100175.25;6340977;20;2773233;-63
2022/08/10 03:47:03;;;;;;;;;6.20;5.40;;;;;17.40;69.30;100172.78;6313490;20;2728526;-63
2022/08/10 03:49:47;;;;;;;;;8.00;8.00;;;;;17.56;68.69;100181.38;6344540;20;2748422;-63
2022/08/10 03:52:18;;;;;;;;;5.50;5.00;;;;;17.61;68.87;100190.00;6320014;20;2749432;-63
2022/08/10 03:54:50;;;;;;;;;6.00;6.00;;;;;17.48;68.90;100194.72;6287330;20;2739994;-63
2022/08/10 03:57:21;;;;;;;;;8.60;7.20;;;;;17.66;68.41;100185.06;6310474;20;2748270;-64
2022/08/10 03:59:51;;;;;;;;;7.00;7.00;;;;;17.65;68.66;100186.06;6341623;20;2746100;-64
2022/08/10 04:02:19;;;;;;;;;11.50;6.00;;;;;17.67;68.61;100184.09;6315952;20;2759656;-63
2022/08/10 04:05:07;;;;;;;;;8.00;6.50;;;;;17.70;68.37;100191.97;6292674;20;2739826;-64
2022/08/10 04:07:37;;;;;;;;;6.00;6.00;;;;;17.78;67.89;100189.47;6314794;20;2740927;-64
2022/08/10 04:10:07;;;;;;;;;7.60;7.60;;;;;17.84;68.23;100188.13;6341093;20;2748173;-63
2022/08/10 04:12:39;;;;;;;;;9.00;7.50;;;;;17.87;68.23;100192.44;6319431;20;2746182;-63
2022/08/10 04:15:08;;;;;;;;;8.00;8.00;;;;;17.83;68.23;100191.00;6293160;20;2735680;-63
2022/08/10 04:17:36;;;;;;;;;5.00;5.00;;;;;17.88;68.04;100194.19;6292397;20;2749420;-63
2022/08/10 04:21:02;;;;;;;;;8.00;7.00;;;;;17.95;67.71;100196.22;6289837;20;2735660;-64
2022/08/10 04:23:33;;;;;;;;;7.00;7.00;;;;;17.94;68.16;100193.66;6287749;20;2748385;-64
2022/08/10 04:26:01;;;;;;;;;6.00;6.00;;;;;17.99;68.29;100196.84;6290282;20;2736721;-64
2022/08/10 04:28:30;;;;;;;;;7.00;7.00;;;;;18.24;67.24;100194.78;6288611;20;2732625;-62
2022/08/10 04:31:01;;;;;;;;;7.80;6.60;;;;;18.18;67.51;100201.59;6308835;20;2739885;-62
2022/08/10 04:33:32;;;;;;;;;9.00;7.67;;;;;18.19;67.66;100204.19;6315987;20;2751374;-62
2022/08/10 04:36:05;;;;;;;;;5.71;4.86;;;;;18.01;68.23;100204.88;6360573;20;3457545;-62
2022/08/10 04:38:36;;;;;;;;;7.60;7.60;;;;;18.08;68.67;100201.50;6342441;20;2750237;-62
2022/08/10 04:41:06;;;;;;;;;7.60;7.60;;;;;18.36;67.56;100208.19;6340564;20;2729408;-62
2022/08/10 04:43:36;;;;;;;;;6.40;6.00;;;;;18.60;66.91;100199.75;6342781;20;2737748;-62
2022/08/10 04:46:06;;;;;;;;;6.40;6.40;;;;;18.59;66.97;100192.59;6342651;20;2744003;-62
2022/08/10 04:48:56;;;;;;;;;6.60;6.60;;;;;18.40;67.60;100197.88;6339732;20;2736826;-62
2022/08/10 04:51:30;;;;;;;;;6.20;5.60;;;;;18.69;67.21;100195.34;6345631;20;2743025;-62
2022/08/10 04:53:59;;;;;;;;;7.00;7.00;;;;;18.99;66.00;100194.56;6343671;20;2752374;-63
2022/08/10 04:56:38;;;;;;;;;5.40;5.00;;;;;19.04;65.58;100186.84;6311911;20;2733609;-62
2022/08/10 04:59:10;;;;;;;;;6.60;6.20;;;;;19.30;64.83;100186.38;6341943;20;2733610;-63
2022/08/10 05:01:40;;;;;;;;;7.60;6.00;;;;;19.61;63.66;100191.75;6343691;20;2743009;-62
2022/08/10 05:04:30;;;;;;;;;6.20;5.80;;;;;19.66;63.28;100195.81;6342920;20;2741943;-63
2022/08/10 05:07:12;;;;;;;;;6.00;6.00;;;;;19.73;62.47;100187.94;6342478;20;2737774;-63
2022/08/10 05:09:50;;;;;;;;;7.60;6.00;;;;;19.94;62.31;100196.84;6342581;20;2732547;-61
2022/08/10 05:12:36;;;;;;;;;6.40;6.00;;;;;20.13;61.52;100195.16;6339434;20;2735704;-62
2022/08/10 05:18:18;;;;;;;;;6.80;6.00;;;;;20.93;58.81;100207.56;6344460;20;2734627;-62
2022/08/10 05:20:47;;;;;;;;;8.40;5.20;;;;;22.82;53.66;100207.72;6337513;20;2739868;-62
2022/08/10 05:23:18;;;;;;;;;6.20;5.60;;;;;23.23;51.37;100210.75;6342278;20;2743051;-63
2022/08/10 05:25:46;;;;;;;;;7.33;7.00;;;;;23.24;52.02;100215.19;6318981;20;2733580;-62
2022/08/10 05:28:16;;;;;;;;;7.80;7.80;;;;;24.22;50.03;100211.94;6344578;20;2752422;-62
2022/08/10 05:30:46;;;;;;;;;6.00;6.00;;;;;25.46;45.96;100222.66;6308782;20;2740866;-61
2022/08/10 05:33:15;;;;;;;;;7.20;6.00;;;;;23.74;50.01;100208.91;6310914;20;2738280;-62
2022/08/10 05:35:45;;;;;;;;;7.20;6.00;;;;;22.27;53.84;100211.56;6344253;20;2733670;-62
2022/08/10 05:38:27;;;;;;;;;7.00;6.00;;;;;21.72;56.57;100210.81;6343182;20;2735681;-62
2022/08/10 05:40:57;;;;;;;;;5.40;5.40;;;;;23.00;52.75;100216.78;6338151;20;2747117;-63
2022/08/10 05:43:26;;;;;;;;;5.00;5.00;;;;;23.50;50.62;100206.06;6285496;20;2731891;-62
2022/08/10 05:45:55;;;;;;;;;5.80;5.40;;;;;24.16;48.16;100209.88;6341457;20;2740898;-62
2022/08/10 05:48:45;;;;;;;;;5.20;5.00;;;;;21.89;54.01;100199.91;6344915;20;2746077;-63
2022/08/10 05:51:28;;;;;;;;;4.00;4.00;;;;;23.28;51.17;100204.78;6310229;20;2742942;-62
2022/08/10 05:53:59;;;;;;;;;5.00;5.00;;;;;22.37;52.56;100206.03;6313049;20;2735726;-62
2022/08/10 05:56:38;;;;;;;;;6.60;5.00;;;;;22.25;53.44;100207.28;6338418;20;2741931;-63
2022/08/10 05:59:32;;;;;;;;;4.80;4.80;;;;;21.86;53.80;100211.16;6340080;20;2739835;-62
2022/08/10 06:02:31;;;;;;;;;6.33;5.33;;;;;22.24;53.53;100208.28;6316882;20;2741047;-62
2022/08/10 06:05:12;;;;;;;;;6.00;5.00;;;;;23.12;51.41;100206.41;6314077;20;2730509;-62
2022/08/10 06:07:59;;;;;;;;;5.20;5.20;;;;;22.97;51.05;100203.41;6334173;20;2727367;-60
2022/08/10 06:10:30;;;;;;;;;8.00;5.20;;;;;22.40;52.42;100204.84;6338021;20;2737753;-62
2022/08/10 06:16:15;;;;;;;;;4.00;4.00;;;;;22.66;51.59;100203.00;6320153;20;2747134;-64
2022/08/10 06:18:46;;;;;;;;;4.80;4.80;;;;;22.91;51.33;100209.50;6340427;20;2745040;-64
2022/08/10 06:21:16;;;;;;;;;5.00;5.00;;;;;22.39;51.72;100206.72;6307384;20;2745144;-65
2022/08/10 06:23:47;;;;;;;;;7.00;5.80;;;;;22.33;52.41;100201.91;6341741;20;2740881;-63
2022/08/10 06:26:17;;;;;;;;;3.60;3.60;;;;;22.36;52.30;100198.84;6337686;20;2747113;-65
2022/08/10 06:29:06;;;;;;;;;7.60;4.20;;;;;22.27;52.95;100197.88;6342936;20;2750274;-63
2022/08/10 06:31:50;;;;;;;;;2.57;2.57;;;;;22.58;52.27;100206.53;6356115;20;3456466;-63
2022/08/10 06:34:37;;;;;;;;;6.20;5.00;;;;;22.83;51.27;100198.50;6341186;20;2746250;-63
2022/08/10 06:37:12;;;;;;;;;4.67;4.67;;;;;23.22;50.25;100200.81;6360834;20;1794160;-65
2022/08/10 06:39:43;;;;;;;;;4.00;4.00;;;;;23.45;49.54;100199.19;6340314;20;2738975;-63
2022/08/10 06:42:36;;;;;;;;;4.60;4.60;;;;;23.78;49.04;100201.25;6340738;20;2745099;-65
2022/08/10 06:45:12;;;;;;;;;2.60;2.60;;;;;24.10;48.39;100200.44;6306568;20;2729442;-65
2022/08/10 06:48:01;;;;;;;;;3.80;0.60;;;;;24.25;45.05;100195.13;6336908;20;2726325;-65
2022/08/10 06:50:42;;;;;;;;;2.40;2.40;;;;;24.79;43.32;100203.72;6336790;20;2736758;-64
2022/08/10 06:53:21;;;;;;;;;3.00;3.00;;;;;25.60;40.85;100208.13;6338218;20;2743994;-64
2022/08/10 06:56:11;;;;;;;;;3.00;3.00;;;;;24.54;43.38;100194.66;6304989;20;2741933;-64
2022/08/10 06:59:06;;;;;;;;;3.80;3.00;;;;;24.84;42.10;100200.47;6306499;20;2738836;-65
2022/08/10 07:01:51;;;;;;;;;3.00;3.00;;;;;26.08;40.25;100204.47;6338641;20;2732602;-64
2022/08/10 07:04:41;;;;;;;;;3.80;3.00;;;;;25.83;40.21;100204.59;6341471;20;2727446;-63
2022/08/10 07:07:19;;;;;;;;;1.00;1.00;;;;;25.28;41.12;100202.78;6339471;20;2727393;-64
2022/08/10 07:09:51;;;;;;;;;1.00;1.00;;;;;24.82;42.26;100208.00;6346405;20;2728443;-63
2022/08/10 07:12:21;;;;;;;;;2.33;2.00;;;;;24.72;41.63;100209.06;6318340;20;2744001;-63
2022/08/10 07:14:53;;;;;;;;;6.40;2.80;;;;;26.15;39.80;100210.97;6343010;20;2756646;-64
2022/08/10 07:17:26;;;;;;;;;2.40;2.40;;;;;26.63;39.52;100208.88;6311202;20;2747122;-62
2022/08/10 07:19:58;;;;;;;;;4.00;3.00;;;;;26.10;39.01;100202.41;6308259;20;2739918;-63
2022/08/10 07:22:31;;;;;;;;;2.60;1.40;;;;;26.37;38.65;100210.09;6313107;20;2744034;-64
2022/08/10 07:25:25;;;;;;;;;3.40;2.40;;;;;25.92;39.88;100205.44;6310282;20;2735750;-63
2022/08/10 07:27:58;;;;;;;;;1.00;1.00;;;;;25.32;41.17;100199.47;6309453;20;2753455;-64
2022/08/10 07:30:37;;;;;;;;;3.50;2.50;;;;;25.98;39.90;100205.53;6314187;20;1911897;-62
2022/08/10 07:33:09;;;;;;;;;4.20;4.00;;;;;26.55;38.94;100195.19;6341375;20;2748288;-60
2022/08/10 07:35:40;;;;;;;;;4.00;3.00;;;;;26.36;39.97;100200.13;6290619;20;2738818;-59
2022/08/10 07:38:25;;;;;;;;;2.00;2.00;;;;;25.89;40.23;100203.03;6342862;20;2753835;-60
2022/08/10 07:41:01;;;;;;;;;5.00;2.60;;;;;26.74;37.08;100205.66;6312253;20;2736876;-59
2022/08/10 07:43:38;;;;;;;;;3.00;2.00;;;;;25.84;39.18;100204.44;6342303;20;2748673;-60
2022/08/10 07:46:13;;;;;;;;;1.40;1.40;;;;;25.42;39.30;100199.28;6308931;20;2739834;-61
2022/08/10 07:48:57;;;;;;;;;0.40;0.40;;;;;25.82;38.72;100200.97;6310590;20;2727440;-62
2022/08/10 07:51:28;;;;;;;;;3.00;3.00;;;;;26.32;38.20;100195.16;6343208;20;2745131;-63
2022/08/10 07:54:04;;;;;;;;;1.80;1.40;;;;;26.16;38.34;100201.66;6309739;20;2737136;-61
2022/08/10 07:56:36;;;;;;;;;4.00;2.00;;;;;26.30;37.55;100203.59;6315816;20;2751299;-62
2022/08/10 07:59:27;;;;;;;;;2.00;2.00;;;;;26.74;36.24;100205.66;6289078;20;2741955;-62
2022/08/10 08:01:59;;;;;;;;;2.00;2.00;;;;;26.51;37.40;100200.16;6339937;20;2734056;-61
2022/08/10 08:04:30;;;;;;;;;2.20;0.40;;;;;27.69;34.25;100196.66;6342471;20;2741935;-60
2022/08/10 08:07:03;;;;;;;;;1.40;1.40;;;;;26.99;35.53;100209.03;6309688;20;2750241;-62
2022/08/10 08:09:37;;;;;;;;;0.00;0.00;;;;;25.83;35.65;100201.84;6313876;20;2729446;-62
2022/08/10 08:12:26;;;;;;;;;0.33;0.33;;;;;25.87;35.28;100214.22;6321055;20;2724223;-57
2022/08/10 08:14:59;;;;;;;;;1.80;1.80;;;;;26.82;34.49;100205.59;6340706;20;2737970;-63
2022/08/10 08:17:51;;;;;;;;;1.00;1.00;;;;;25.91;35.00;100214.69;6306243;20;2724211;-63
2022/08/10 08:20:29;;;;;;;;;0.60;0.00;;;;;26.14;34.45;100203.72;6342252;20;2726368;-63
2022/08/10 08:23:00;;;;;;;;;2.00;1.00;;;;;26.97;32.77;100200.09;6343140;20;2730493;-62
2022/08/10 08:25:51;;;;;;;;;1.00;1.00;;;;;26.36;34.36;100200.13;6341953;20;2723314;-62
2022/08/10 08:28:22;;;;;;;;;1.00;1.00;;;;;26.64;34.11;100199.56;6341581;20;2731565;-63
2022/08/10 08:30:53;;;;;;;;;1.40;0.60;;;;;27.28;33.72;100202.72;6342323;20;2726320;-61
2022/08/10 08:33:24;;;;;;;;;0.80;0.80;;;;;26.45;34.97;100211.91;6344566;20;2722171;-63
2022/08/10 08:36:17;;;;;;;;;0.00;0.00;;;;;27.26;34.03;100204.81;6368343;20;3435732;-63
2022/08/10 08:38:47;;;;;;;;;1.00;1.00;;;;;26.53;34.83;100198.09;6341189;20;2739842;-64
2022/08/10 08:41:45;;;;;;;;;2.00;2.00;;;;;27.79;33.12;100199.13;6339641;20;2746080;-63
2022/08/10 08:45:05;;;;;;;;;2.00;0.40;;;;;26.58;35.23;100203.06;6311969;20;2726313;-63
2022/08/10 08:48:18;;;;;;;;;0.60;0.60;;;;;26.55;34.85;100200.69;6339533;20;2729431;-63
2022/08/10 08:51:24;;;;;;;;;1.20;1.20;;;;;27.11;33.96;100195.63;6344055;20;2737762;-63
2022/08/10 08:54:47;;;;;;;;;0.80;0.80;;;;;27.04;34.07;100192.78;6343620;20;2724388;-62
2022/08/10 08:57:38;;;;;;;;;2.00;2.00;;;;;27.49;33.97;100198.31;6340624;20;2744049;-63
2022/08/10 09:01:01;;;;;;;;;1.60;1.60;;;;;27.38;33.44;100196.88;6311233;20;2727330;-63
2022/08/10 09:04:26;;;;;;;;;2.50;2.00;;;;;27.92;33.34;100192.94;6311399;20;2744002;-63
2022/08/10 09:08:05;;;;;;;;;1.60;0.00;;;;;28.73;32.46;100201.84;6308107;20;2733603;-62
2022/08/10 09:11:12;;;;;;;;;1.00;1.00;;;;;28.14;32.40;100205.69;6341207;20;2731541;-64
2022/08/10 09:14:04;;;;;;;;;2.00;1.80;;;;;27.73;31.88;100200.75;6310997;20;2739858;-63
2022/08/10 09:17:31;;;;;;;;;0.40;0.00;;;;;26.88;32.73;100193.81;6308677;20;2727433;-63
2022/08/10 09:21:08;;;;;;;;;0.40;0.40;;;;;27.29;32.92;100198.91;6338171;20;2737229;-63
2022/08/10 09:24:12;;;;;;;;;0.00;0.00;;;;;27.72;32.56;100187.13;6306114;20;2731627;-63
2022/08/10 09:26:52;;;;;;;;;1.40;1.40;;;;;28.06;32.92;100189.25;6340279;20;2746082;-63
2022/08/10 09:29:28;;;;;;;;;1.00;1.00;;;;;27.40;33.20;100188.44;6289155;20;2727527;-63
2022/08/10 09:32:12;;;;;;;;;2.80;1.60;;;;;28.31;32.53;100186.97;6342481;20;2744055;-62
2022/08/10 09:35:35;;;;;;;;;1.60;1.00;;;;;28.41;32.27;100176.44;6307281;20;2735732;-62
2022/08/10 09:39:15;;;;;;;;;1.80;1.00;;;;;27.43;32.73;100182.53;6310149;20;2725287;-62
2022/08/10 09:42:20;;;;;;;;;2.00;1.80;;;;;28.35;32.20;100187.44;6337362;20;2735683;-61
2022/08/10 09:45:26;;;;;;;;;1.60;0.40;;;;;28.28;31.94;100178.22;6312132;20;2733804;-62
2022/08/10 09:48:42;;;;;;;;;0.00;0.00;;;;;27.76;31.29;100177.44;6335241;20;2727355;-61
2022/08/10 09:51:50;;;;;;;;;1.40;1.40;;;;;28.20;31.77;100173.69;6307193;20;2734726;-61
2022/08/10 09:54:53;;;;;;;;;5.20;1.80;;;;;28.86;31.05;100190.03;6337145;20;2753362;-63
2022/08/10 09:58:37;;;;;;;;;2.80;1.00;;;;;28.20;30.58;100174.56;6304541;20;2737800;-62
2022/08/10 10:01:41;;;;;;;;;2.00;2.00;;;;;27.73;30.92;100162.13;6310455;20;2741975;-63
2022/08/10 10:05:09;;;;;;;;;4.00;2.20;;;;;28.40;30.57;100171.97;6311261;20;2756603;-62
2022/08/10 10:08:09;;;;;;;;;1.00;0.80;;;;;28.83;29.50;100165.53;6304327;20;2739854;-64
2022/08/10 10:11:03;;;;;;;;;3.80;2.20;;;;;28.61;30.21;100160.06;6306388;20;2756524;-64
2022/08/10 10:14:10;;;;;;;;;0.00;0.00;;;;;28.45;31.06;100160.34;6313024;20;2733653;-61
2022/08/10 10:17:02;;;;;;;;;1.00;1.00;;;;;29.74;28.80;100159.91;6315373;20;2741915;-62
2022/08/10 10:20:14;;;;;;;;;4.25;1.25;;;;;29.56;28.33;100160.44;6343604;20;2742349;-63
2022/08/10 10:23:01;;;;;;;;;1.80;1.80;;;;;28.59;29.47;100156.63;6303427;20;2735698;-64
2022/08/10 10:25:45;;;;;;;;;0.80;0.80;;;;;28.89;30.16;100156.44;6337920;20;2732553;-63
2022/08/10 10:28:38;;;;;;;;;1.40;1.40;;;;;28.24;30.47;100161.19;6338576;20;2746085;-63
2022/08/10 10:31:57;;;;;;;;;3.00;3.00;;;;;29.11;29.56;100154.47;6310950;20;2748156;-65
2022/08/10 10:35:15;;;;;;;;;1.40;1.40;;;;;28.65;30.14;100158.63;6309156;20;2741913;-64
2022/08/10 10:37:46;;;;;;;;;2.00;2.00;;;;;29.38;29.61;100152.69;6293364;20;2749212;-63
2022/08/10 10:40:52;;;;;;;;;1.80;1.80;;;;;28.94;29.82;100145.63;6309538;20;2742070;-62
2022/08/10 10:44:02;;;;;;;;;0.40;0.40;;;;;28.98;29.08;100143.31;6306395;20;2724269;-64
2022/08/10 10:47:03;;;;;;;;;2.00;2.00;;;;;29.52;29.20;100146.16;6315495;20;2735671;-61
2022/08/10 10:50:16;;;;;;;;;0.40;0.40;;;;;29.51;28.74;100140.81;6340373;20;2725307;-64
2022/08/10 10:53:18;;;;;;;;;1.00;1.00;;;;;29.76;28.63;100141.16;6338451;20;2726424;-63
2022/08/10 10:56:02;;;;;;;;;2.33;1.00;;;;;29.98;27.70;100147.38;6317103;20;2755441;-63
2022/08/10 10:59:32;;;;;;;;;1.00;1.00;;;;;29.25;29.46;100130.50;6344602;20;2733658;-64
2022/08/10 11:03:19;;;;;;;;;1.20;1.20;;;;;29.58;27.80;100138.09;6311428;20;2748319;-63
2022/08/10 11:06:26;;;;;;;;;1.20;1.20;;;;;29.40;27.42;100130.38;6306295;20;2741916;-60
2022/08/10 11:09:53;;;;;;;;;2.33;1.67;;;;;29.00;28.48;100124.59;6317453;20;2746111;-62
2022/08/10 11:13:12;;;;;;;;;1.00;1.00;;;;;30.10;27.23;100131.03;6339352;20;2731627;-60
2022/08/10 11:16:19;;;;;;;;;2.40;0.80;;;;;30.01;26.56;100126.72;6306463;20;2750334;-62
2022/08/10 11:19:13;;;;;;;;;1.20;1.20;;;;;29.54;27.50;100119.16;6309238;20;2733601;-62
2022/08/10 11:22:34;;;;;;;;;2.40;1.40;;;;;29.14;27.58;100120.88;6310430;20;2735721;-63
2022/08/10 11:25:26;;;;;;;;;0.40;0.00;;;;;30.11;26.86;100116.09;6310679;20;2733600;-63
2022/08/10 11:28:30;;;;;;;;;1.80;1.80;;;;;29.73;26.68;100119.44;6338534;20;2737748;-62
2022/08/10 11:31:39;;;;;;;;;0.40;0.40;;;;;29.24;27.25;100109.44;6307375;20;2724206;-61
2022/08/10 11:34:36;;;;;;;;;0.00;0.00;;;;;29.62;26.68;100109.81;6337936;20;2729560;-61
2022/08/10 11:38:17;;;;;;;;;0.40;0.40;;;;;29.03;26.63;100105.69;6306090;20;2723263;-62
2022/08/10 11:41:43;;;;;;;;;2.00;1.40;;;;;29.85;26.40;100112.22;6342357;20;2741978;-63
2022/08/10 11:45:01;;;;;;;;;1.00;1.00;;;;;30.57;25.34;100116.13;6309941;20;2727395;-62
2022/08/10 11:47:53;;;;;;;;;1.60;0.20;;;;;30.62;25.75;100107.16;6336014;20;2737729;-60
2022/08/10 11:50:43;;;;;;;;;2.00;1.40;;;;;28.24;28.91;100109.56;6311182;20;2742306;-61
2022/08/10 11:53:52;;;;;;;;;1.00;1.00;;;;;28.99;27.57;100095.22;6310398;20;2716997;-61
2022/08/10 11:56:49;;;;;;;;;1.00;1.00;;;;;29.34;27.16;100104.38;6344517;20;2736716;-63
2022/08/10 12:02:46;;;;;;;;;0.80;0.80;;;;;28.72;27.77;100105.28;6310273;20;2727345;-62
2022/08/10 12:05:27;;;;;;;;;1.40;1.40;;;;;29.75;26.43;100107.09;6344750;20;2724671;-62
2022/08/10 12:08:18;;;;;;;;;1.40;1.40;;;;;30.22;26.57;100101.59;6345277;20;2735678;-61
2022/08/10 12:11:15;;;;;;;;;0.00;0.00;;;;;30.44;26.27;100104.19;6314301;20;2731514;-61
2022/08/10 12:14:37;;;;;;;;;0.00;0.00;;;;;28.52;26.16;100103.25;6348493;20;2735717;-63
2022/08/10 12:17:28;;;;;;;;;0.40;0.40;;;;;27.78;27.85;100092.56;6310738;20;2719135;-63
2022/08/10 12:20:22;;;;;;;;;1.40;1.40;;;;;28.81;27.35;100093.88;6342730;20;2752365;-63
2022/08/10 12:23:11;;;;;;;;;1.00;1.00;;;;;29.88;26.57;100086.88;6311530;20;2722246;-62
2022/08/10 12:26:06;;;;;;;;;2.40;0.40;;;;;29.88;26.90;100083.25;6343359;20;2737743;-63
2022/08/10 12:29:22;;;;;;;;;0.40;0.40;;;;;29.08;27.91;100083.84;6310447;20;2727348;-63
2022/08/10 12:32:07;;;;;;;;;1.00;1.00;;;;;28.10;27.36;100079.31;6341900;20;2729586;-61
2022/08/10 12:34:50;;;;;;;;;0.40;0.40;;;;;28.26;28.05;100084.53;6344273;20;2735768;-64
2022/08/10 12:38:07;;;;;;;;;0.00;0.00;;;;;28.32;27.55;100091.16;6344102;20;2731504;-62
2022/08/10 12:40:55;;;;;;;;;1.00;1.00;;;;;29.53;26.01;100081.44;6343428;20;2728366;-62
2022/08/10 12:44:00;;;;;;;;;1.00;1.00;;;;;29.75;26.14;100073.88;6321462;20;2723270;-60
2022/08/10 12:47:00;;;;;;;;;1.20;1.20;;;;;30.34;25.10;100071.38;6343282;20;2746267;-63
2022/08/10 12:50:29;;;;;;;;;0.00;0.00;;;;;29.66;26.09;100068.75;6310977;20;2729423;-61
2022/08/10 12:53:50;;;;;;;;;1.20;0.40;;;;;29.48;26.20;100067.38;6312017;20;2733585;-61